createdAt,value
2022-12-18T00:01:02.447Z,91.4
2022-12-18T00:04:02.519Z,91.6
2022-12-18T00:07:02.460Z,91.8
2022-12-18T00:10:02.488Z,91.9
2022-12-18T00:13:03.766Z,91.7
2022-12-18T00:16:02.507Z,91.8
2022-12-18T00:19:02.481Z,91.7
2022-12-18T00:22:02.490Z,91.3
2022-12-18T00:25:02.484Z,91.1
2022-12-18T00:28:02.527Z,90.9
2022-12-18T00:31:02.539Z,90.7
2022-12-18T00:34:02.516Z,90.7
2022-12-18T00:37:02.516Z,90.8
2022-12-18T00:40:02.526Z,91.1
2022-12-18T00:43:02.537Z,91.3
2022-12-18T00:46:02.583Z,91.4
2022-12-18T00:49:02.551Z,91.4
2022-12-18T00:52:02.552Z,91.7
2022-12-18T00:55:06.176Z,91.5
2022-12-18T00:58:02.568Z,91.1
2022-12-18T01:01:02.611Z,90.9
2022-12-18T01:04:02.610Z,90.8
2022-12-18T01:07:02.598Z,90.8
2022-12-18T01:10:02.609Z,90.7
2022-12-18T01:13:02.608Z,90.8
2022-12-18T01:16:02.647Z,91
2022-12-18T01:19:02.627Z,91.2
2022-12-18T01:22:02.655Z,91.1
2022-12-18T01:25:02.644Z,91
2022-12-18T01:28:02.657Z,91.1
2022-12-18T01:31:02.660Z,91.6
2022-12-18T01:34:02.673Z,91.6
2022-12-18T01:37:02.685Z,91.4
2022-12-18T01:40:02.694Z,91.3
2022-12-18T01:43:02.700Z,90.9
2022-12-18T01:46:02.764Z,90.9
2022-12-18T01:49:02.720Z,90.8
2022-12-18T01:52:02.724Z,90.6
2022-12-18T01:55:02.735Z,90.4
2022-12-18T01:58:02.840Z,90.5
2022-12-18T02:01:02.789Z,90.8
2022-12-18T02:04:02.767Z,91.1
2022-12-18T02:07:02.782Z,91.2
2022-12-18T02:10:02.790Z,91.3
2022-12-18T02:13:02.925Z,91.2
2022-12-18T02:16:02.809Z,91.2
2022-12-18T02:19:02.817Z,91.2
2022-12-18T02:22:02.839Z,91.1
2022-12-18T02:25:02.836Z,91.2
2022-12-18T02:28:02.851Z,91.3
2022-12-18T02:31:02.996Z,91.4
2022-12-18T02:34:02.863Z,91.3
2022-12-18T02:37:02.868Z,90.8
2022-12-18T02:40:02.873Z,90.6
2022-12-18T02:43:02.885Z,90.9
2022-12-18T02:46:02.929Z,91.2
2022-12-18T02:49:03.012Z,91.2
2022-12-18T02:52:02.897Z,91.3
2022-12-18T02:55:02.899Z,91.1
2022-12-18T02:58:02.902Z,90.7
2022-12-18T03:01:02.966Z,90.6
2022-12-18T03:04:02.923Z,90.4
2022-12-18T03:07:03.039Z,90.3
2022-12-18T03:10:02.932Z,90.3
2022-12-18T03:13:02.928Z,90.4
2022-12-18T03:16:02.935Z,90.6
2022-12-18T03:19:02.946Z,90.7
2022-12-18T03:22:02.939Z,90.8
2022-12-18T03:25:03.070Z,91
2022-12-18T03:28:02.955Z,90.8
2022-12-18T03:31:02.990Z,90.6
2022-12-18T03:34:02.986Z,90.5
2022-12-18T03:37:02.968Z,90.5
2022-12-18T03:40:02.967Z,90.6
2022-12-18T03:43:03.105Z,90.6
2022-12-18T03:46:03.021Z,90.8
2022-12-18T03:49:02.989Z,90.8
2022-12-18T03:52:02.990Z,90.9
2022-12-18T03:55:02.998Z,90.8
2022-12-18T03:58:03.001Z,90.7
2022-12-18T04:01:03.132Z,90.6
2022-12-18T04:04:03.063Z,90.7
2022-12-18T04:07:03.011Z,90.9
2022-12-18T04:10:03.020Z,90.9
2022-12-18T04:13:03.020Z,90.9
2022-12-18T04:16:03.037Z,90.8
2022-12-18T04:19:09.081Z,90.9
2022-12-18T04:22:03.157Z,91.1
2022-12-18T04:25:03.038Z,90.7
2022-12-18T04:28:03.043Z,90.3
2022-12-18T04:31:03.101Z,90.4
2022-12-18T04:34:03.057Z,90.6
2022-12-18T04:37:03.051Z,90.7
2022-12-18T04:40:03.178Z,90.9
2022-12-18T04:43:03.097Z,91.1
2022-12-18T04:46:03.093Z,90.9
2022-12-18T04:49:03.075Z,90.5
2022-12-18T04:52:03.078Z,90.5
2022-12-18T04:55:03.079Z,90.3
2022-12-18T04:58:03.204Z,90.2
2022-12-18T05:01:03.085Z,90
2022-12-18T05:04:03.131Z,90.1
2022-12-18T05:07:03.102Z,90.2
2022-12-18T05:10:03.104Z,90.3
2022-12-18T05:13:03.113Z,90.5
2022-12-18T05:16:03.277Z,90.6
2022-12-18T05:19:03.143Z,91.1
2022-12-18T05:22:03.134Z,91.1
2022-12-18T05:25:03.134Z,91.2
2022-12-18T05:28:03.139Z,91.2
2022-12-18T05:31:03.207Z,91.2
2022-12-18T05:34:09.084Z,91.1
2022-12-18T05:37:03.275Z,91.1
2022-12-18T05:40:03.160Z,91.4
2022-12-18T05:43:03.165Z,91.9
2022-12-18T05:46:03.174Z,91.7
2022-12-18T05:49:03.173Z,91.7
2022-12-18T05:52:03.180Z,91.7
2022-12-18T05:55:03.312Z,91.5
2022-12-18T05:58:03.196Z,91.2
2022-12-18T06:01:03.192Z,91
2022-12-18T06:04:03.241Z,90.8
2022-12-18T06:07:03.202Z,90.9
2022-12-18T06:10:03.206Z,90.8
2022-12-18T06:13:03.353Z,90.9
2022-12-18T06:16:03.269Z,90.9
2022-12-18T06:19:03.221Z,90.9
2022-12-18T06:22:03.227Z,90.7
2022-12-18T06:25:03.227Z,90.6
2022-12-18T06:28:03.236Z,90.7
2022-12-18T06:31:03.382Z,90.4
2022-12-18T06:34:03.240Z,90.3
2022-12-18T06:37:03.245Z,90.5
2022-12-18T06:40:03.244Z,90.5
2022-12-18T06:43:03.261Z,90.3
2022-12-18T06:46:03.313Z,90.3
2022-12-18T06:49:03.384Z,90.3
2022-12-18T06:52:03.268Z,90.2
2022-12-18T06:55:03.272Z,90.3
2022-12-18T06:58:03.279Z,90.4
2022-12-18T07:01:03.346Z,90.2
2022-12-18T07:04:03.291Z,90.1
2022-12-18T07:07:03.414Z,90.1
2022-12-18T07:10:03.301Z,90.1
2022-12-18T07:13:03.303Z,90.3
2022-12-18T07:16:03.326Z,90.5
2022-12-18T07:19:03.315Z,90.6
2022-12-18T07:22:03.319Z,90.3
2022-12-18T07:25:03.443Z,90.2
2022-12-18T07:28:03.331Z,90.1
2022-12-18T07:31:03.333Z,90.2
2022-12-18T07:34:03.339Z,90.2
2022-12-18T07:37:03.338Z,90.3
2022-12-18T07:40:03.355Z,90.3
2022-12-18T07:43:03.472Z,90.4
2022-12-18T07:46:03.379Z,90.5
2022-12-18T07:49:03.362Z,90.5
2022-12-18T07:52:03.360Z,90.6
2022-12-18T07:55:03.367Z,90.8
2022-12-18T07:58:03.517Z,91
2022-12-18T08:01:03.542Z,91.3
2022-12-18T08:04:03.371Z,91.6
2022-12-18T08:07:03.378Z,91.9
2022-12-18T08:10:03.385Z,92.1
2022-12-18T08:13:05.199Z,92.2
2022-12-18T08:16:03.401Z,92.3
2022-12-18T08:19:03.527Z,92.4
2022-12-18T08:22:03.406Z,92.6
2022-12-18T08:25:03.411Z,92.8
2022-12-18T08:28:03.424Z,92.9
2022-12-18T08:31:03.448Z,92.9
2022-12-18T08:34:03.429Z,92.7
2022-12-18T08:37:03.557Z,92.6
2022-12-18T08:40:03.438Z,92.3
2022-12-18T08:43:03.442Z,92
2022-12-18T08:46:03.462Z,91.6
2022-12-18T08:49:03.449Z,91.5
2022-12-18T08:52:03.459Z,91.3
2022-12-18T08:55:03.572Z,90.4
2022-12-18T08:58:03.469Z,90.3
2022-12-18T09:01:03.516Z,90.2
2022-12-18T09:04:03.472Z,90.1
2022-12-18T09:07:03.479Z,90
2022-12-18T09:10:03.483Z,89.4
2022-12-18T09:13:03.612Z,89.7
2022-12-18T09:16:03.491Z,89.1
2022-12-18T09:19:03.496Z,89.3
2022-12-18T09:22:03.498Z,89.1
2022-12-18T09:25:03.502Z,89.1
2022-12-18T09:28:03.505Z,89
2022-12-18T09:31:03.653Z,88.8
2022-12-18T09:34:03.519Z,87.5
2022-12-18T09:37:03.521Z,87.9
2022-12-18T09:40:03.529Z,87.3
2022-12-18T09:43:03.542Z,87.2
2022-12-18T09:46:03.611Z,87.8
2022-12-18T09:49:03.671Z,88.4
2022-12-18T09:52:03.542Z,87.2
2022-12-18T09:55:03.545Z,87.8
2022-12-18T09:58:03.549Z,87.1
2022-12-18T10:01:03.552Z,87.3
2022-12-18T10:04:03.586Z,86.8
2022-12-18T10:07:08.873Z,86.3
2022-12-18T10:10:03.561Z,86.9
2022-12-18T10:13:04.824Z,87.1
2022-12-18T10:16:03.662Z,86.2
2022-12-18T10:19:03.578Z,85.5
2022-12-18T10:22:03.586Z,85.6
2022-12-18T10:25:03.733Z,85.6
2022-12-18T10:28:03.593Z,86.4
2022-12-18T10:31:03.620Z,86.5
2022-12-18T10:34:03.604Z,86.6
2022-12-18T10:37:03.594Z,86.3
2022-12-18T10:40:03.600Z,86.5
2022-12-18T10:43:03.730Z,86.9
2022-12-18T10:46:03.678Z,86.3
2022-12-18T10:49:03.622Z,87
2022-12-18T10:52:03.624Z,86.6
2022-12-18T10:55:03.627Z,86.4
2022-12-18T10:58:03.638Z,86.2
2022-12-18T11:01:03.756Z,85.8
2022-12-18T11:04:03.746Z,86
2022-12-18T11:07:03.648Z,86.1
2022-12-18T11:10:03.660Z,86.4
2022-12-18T11:13:03.665Z,86.9
2022-12-18T11:16:03.676Z,86.5
2022-12-18T11:19:03.784Z,87.6
2022-12-18T11:22:03.673Z,87.7
2022-12-18T11:25:32.780Z,87.7
2022-12-18T11:28:03.684Z,87.7
2022-12-18T11:31:03.746Z,88.1
2022-12-18T11:37:03.812Z,87.9
2022-12-18T11:40:03.700Z,88
2022-12-18T11:43:03.707Z,88.3
2022-12-18T11:46:03.788Z,88.5
2022-12-18T11:49:03.707Z,89.1
2022-12-18T11:52:03.710Z,89.2
2022-12-18T11:55:03.833Z,89.5
2022-12-18T11:58:03.723Z,89.7
2022-12-18T12:01:03.727Z,89.7
2022-12-18T12:04:03.804Z,89.9
2022-12-18T12:07:03.759Z,90.1
2022-12-18T12:10:03.751Z,90.2
2022-12-18T12:13:03.868Z,89.9
2022-12-18T12:16:03.829Z,89.8
2022-12-18T12:19:03.759Z,89.1
2022-12-18T12:22:03.760Z,89.4
2022-12-18T12:25:03.775Z,89.3
2022-12-18T12:28:03.768Z,89
2022-12-18T12:31:03.887Z,89.3
2022-12-18T12:34:03.780Z,89.6
2022-12-18T12:37:03.782Z,89.1
2022-12-18T12:40:11.118Z,89.4
2022-12-18T12:43:03.788Z,88.6
2022-12-18T12:46:03.882Z,88.4
2022-12-18T12:49:03.924Z,88.1
2022-12-18T12:52:03.804Z,88
2022-12-18T12:55:03.810Z,88.1
2022-12-18T12:58:03.810Z,88.5
2022-12-18T13:01:03.862Z,87.8
2022-12-18T13:04:03.817Z,88.3
2022-12-18T13:07:03.949Z,88
2022-12-18T13:10:04.061Z,87.2
2022-12-18T13:13:03.834Z,87.6
2022-12-18T13:16:03.831Z,88.1
2022-12-18T13:19:03.835Z,87.8
2022-12-18T13:22:03.839Z,87.5
2022-12-18T13:25:03.956Z,87.7
2022-12-18T13:28:03.840Z,87.5
2022-12-18T13:31:03.844Z,87.6
2022-12-18T13:34:25.497Z,87.5
2022-12-18T13:37:03.843Z,87.7
2022-12-18T13:40:03.858Z,87.7
2022-12-18T13:43:03.981Z,88
2022-12-18T13:46:03.868Z,88
2022-12-18T13:49:03.881Z,87.8
2022-12-18T13:52:03.889Z,88
2022-12-18T13:55:03.898Z,87.5
2022-12-18T13:58:03.908Z,88.1
2022-12-18T14:01:04.175Z,87.9
2022-12-18T14:04:03.924Z,88
2022-12-18T14:07:03.937Z,88
2022-12-18T14:10:18.910Z,86.3
2022-12-18T14:13:03.947Z,86.9
2022-12-18T14:16:04.195Z,86.6
2022-12-18T14:19:11.827Z,86.8
2022-12-18T14:22:03.961Z,86.6
2022-12-18T14:25:03.958Z,86.8
2022-12-18T14:28:03.969Z,86.8
2022-12-18T14:31:04.018Z,86.8
2022-12-18T14:34:03.976Z,86.9
2022-12-18T14:37:04.111Z,86.9
2022-12-18T14:40:10.359Z,87
2022-12-18T14:43:03.996Z,87.1
2022-12-18T14:46:04.089Z,87
2022-12-18T14:49:04.003Z,86.9
2022-12-18T14:52:04.005Z,87.2
2022-12-18T14:55:04.135Z,86.7
2022-12-18T14:58:04.022Z,86.9
2022-12-18T15:01:04.019Z,86.9
2022-12-18T15:04:04.026Z,87.1
2022-12-18T15:07:04.034Z,87.1
2022-12-18T15:10:04.114Z,87.2
2022-12-18T15:13:04.168Z,87.4
2022-12-18T15:16:04.154Z,87.2
2022-12-18T15:19:04.061Z,87.2
2022-12-18T15:22:06.486Z,87.5
2022-12-18T15:25:04.066Z,87.5
2022-12-18T15:28:04.073Z,87.5
2022-12-18T15:31:04.269Z,87.5
2022-12-18T15:34:04.083Z,87.6
2022-12-18T15:37:04.083Z,87.6
2022-12-18T15:40:04.089Z,87.7
2022-12-18T15:43:04.087Z,87.7
2022-12-18T15:46:04.177Z,87.8
2022-12-18T15:49:04.229Z,87.7
2022-12-18T15:52:04.113Z,87.9
2022-12-18T15:55:04.114Z,87.9
2022-12-18T15:58:04.117Z,88.1
2022-12-18T16:01:04.176Z,88.1
2022-12-18T16:04:04.241Z,88.1
2022-12-18T16:07:17.268Z,88
2022-12-18T16:10:04.134Z,88
2022-12-18T16:13:04.136Z,88
2022-12-18T16:16:04.171Z,88
2022-12-18T16:19:04.145Z,88.1
2022-12-18T16:22:04.152Z,88.1
2022-12-18T16:25:04.277Z,88.1
2022-12-18T16:28:04.157Z,87.9
2022-12-18T16:31:04.198Z,87.8
2022-12-18T16:34:04.168Z,87.5
2022-12-18T16:37:05.688Z,87.6
2022-12-18T16:40:04.180Z,87.4
2022-12-18T16:43:04.317Z,87.4
2022-12-18T16:46:04.216Z,87.5
2022-12-18T16:49:04.188Z,87.5
2022-12-18T16:52:04.198Z,87.6
2022-12-18T16:55:04.201Z,87.6
2022-12-18T16:58:04.203Z,87.7
2022-12-18T17:01:04.332Z,87.9
2022-12-18T17:04:04.294Z,88
2022-12-18T17:07:04.214Z,87.9
2022-12-18T17:10:04.224Z,88
2022-12-18T17:13:04.230Z,87.9
2022-12-18T17:16:04.268Z,88
2022-12-18T17:19:04.353Z,88
2022-12-18T17:22:04.251Z,88.1
2022-12-18T17:25:04.251Z,88
2022-12-18T17:28:04.256Z,88
2022-12-18T17:31:04.291Z,88
2022-12-18T17:34:04.275Z,87.8
2022-12-18T17:37:04.401Z,87.8
2022-12-18T17:40:04.278Z,87.6
2022-12-18T17:43:04.284Z,87.7
2022-12-18T17:46:04.291Z,87.7
2022-12-18T17:49:04.290Z,87.5
2022-12-18T17:52:04.293Z,87.5
2022-12-18T17:55:04.413Z,87.5
2022-12-18T17:58:04.298Z,87.3
2022-12-18T18:01:04.299Z,87.5
2022-12-18T18:04:04.438Z,87.1
2022-12-18T18:07:04.317Z,87
2022-12-18T18:10:04.329Z,87
2022-12-18T18:13:04.451Z,87
2022-12-18T18:16:04.395Z,86.6
2022-12-18T18:19:04.340Z,86.8
2022-12-18T18:22:04.355Z,86.8
2022-12-18T18:25:04.343Z,86.7
2022-12-18T18:28:04.342Z,86.8
2022-12-18T18:31:04.561Z,86.8
2022-12-18T18:34:04.370Z,86.7
2022-12-18T18:37:04.352Z,86.3
2022-12-18T18:40:04.361Z,86.1
2022-12-18T18:43:04.374Z,86.3
2022-12-18T18:46:04.451Z,86.1
2022-12-18T18:49:04.501Z,85.6
2022-12-18T18:52:04.380Z,85.7
2022-12-18T18:55:13.135Z,85.6
2022-12-18T18:58:04.392Z,85.5
2022-12-18T19:01:04.453Z,85.3
2022-12-18T19:04:04.401Z,85.4
2022-12-18T19:07:04.538Z,85.3
2022-12-18T19:10:05.456Z,85.4
2022-12-18T19:13:04.415Z,85.5
2022-12-18T19:16:04.485Z,85.4
2022-12-18T19:19:04.426Z,85.4
2022-12-18T19:22:04.425Z,85.2
2022-12-18T19:25:04.546Z,84.9
2022-12-18T19:28:04.861Z,84.6
2022-12-18T19:31:04.444Z,84.6
2022-12-18T19:34:04.445Z,84.4
2022-12-18T19:37:04.450Z,84.7
2022-12-18T19:40:07.262Z,84.7
2022-12-18T19:43:04.573Z,84.6
2022-12-18T19:46:04.574Z,84.4
2022-12-18T19:49:04.465Z,84.2
2022-12-18T19:52:04.475Z,83.8
2022-12-18T19:55:04.479Z,83.7
2022-12-18T19:58:04.482Z,83.4
2022-12-18T20:01:04.680Z,83.4
2022-12-18T20:04:04.575Z,83.2
2022-12-18T20:07:04.497Z,83.1
2022-12-18T20:10:08.812Z,83
2022-12-18T20:13:04.504Z,83
2022-12-18T20:16:04.643Z,82.7
2022-12-18T20:19:04.634Z,82.8
2022-12-18T20:22:04.528Z,82.8
2022-12-18T20:25:04.525Z,83
2022-12-18T20:28:04.616Z,82.8
2022-12-18T20:31:04.537Z,82.6
2022-12-18T20:34:04.912Z,82.4
2022-12-18T20:37:04.659Z,82.1
2022-12-18T20:40:04.541Z,82.1
2022-12-18T20:43:04.550Z,82.3
2022-12-18T20:46:04.775Z,82.2
2022-12-18T20:49:04.560Z,82.2
2022-12-18T20:52:04.560Z,82.4
2022-12-18T20:55:04.695Z,82.4
2022-12-18T20:58:04.574Z,82.5
2022-12-18T21:01:04.610Z,82.5
2022-12-18T21:04:04.576Z,82.6
2022-12-18T21:07:04.583Z,82.7
2022-12-18T21:10:04.587Z,82.8
2022-12-18T21:13:06.170Z,82.7
2022-12-18T21:16:04.593Z,82.8
2022-12-18T21:19:04.601Z,82.8
2022-12-18T21:22:04.629Z,82.7
2022-12-18T21:25:04.609Z,82.7
2022-12-18T21:28:04.618Z,82.7
2022-12-18T21:31:04.765Z,82.8
2022-12-18T21:34:04.624Z,82.8
2022-12-18T21:37:04.628Z,82.8
2022-12-18T21:40:04.635Z,82.7
2022-12-18T21:43:04.641Z,82.5
2022-12-18T21:46:04.703Z,82.6
2022-12-18T21:49:04.770Z,82.5
2022-12-18T21:52:04.647Z,82.2
2022-12-18T21:55:09.258Z,82
2022-12-18T21:58:04.660Z,81.4
2022-12-18T22:01:04.718Z,81.2
2022-12-18T22:04:04.744Z,80.6
2022-12-18T22:07:04.803Z,80.6
2022-12-18T22:10:04.685Z,80.3
2022-12-18T22:13:04.686Z,80.4
2022-12-18T22:16:04.788Z,80.1
2022-12-18T22:19:04.692Z,80.3
2022-12-18T22:22:04.690Z,80.3
2022-12-18T22:25:04.819Z,80.4
2022-12-18T22:28:04.709Z,80.5
2022-12-18T22:31:04.740Z,80.3
2022-12-18T22:34:04.721Z,80.2
2022-12-18T22:37:04.714Z,80.1
2022-12-18T22:40:04.724Z,80.2
2022-12-18T22:43:04.849Z,80.2
2022-12-18T22:46:04.806Z,80.4
2022-12-18T22:49:04.740Z,80.3
2022-12-18T22:52:04.748Z,80.4
2022-12-18T22:55:04.749Z,80.4
2022-12-18T22:58:04.755Z,80.4
2022-12-18T23:01:04.931Z,80.5
2022-12-18T23:04:04.779Z,80.6
2022-12-18T23:07:04.820Z,80.6
2022-12-18T23:10:04.771Z,80.7
2022-12-18T23:13:04.776Z,80.7
2022-12-18T23:16:04.849Z,80.7
2022-12-18T23:19:04.907Z,80.7
2022-12-18T23:22:08.647Z,80.7
2022-12-18T23:25:04.801Z,80.5
2022-12-18T23:28:04.801Z,80.6
2022-12-18T23:31:06.351Z,80.5
2022-12-18T23:34:04.809Z,80.6
2022-12-18T23:37:10.775Z,80.8
2022-12-18T23:40:04.938Z,80.8
2022-12-18T23:43:04.819Z,80.8
2022-12-18T23:46:04.856Z,80.7
2022-12-18T23:49:05.827Z,80.4
2022-12-18T23:52:04.827Z,80.5
2022-12-18T23:55:04.838Z,80.6
2022-12-18T23:58:04.957Z,80.6
